sensor_id;sensor_type;location;lat;lon;timestamp;P1;durP1;ratioP1;P2;durP2;ratioP2
6519;SDS011;3293;51.690;5.982;2023-02-19T00:04:38;51.53;;;26.87;;
6519;SDS011;3293;51.690;5.982;2023-02-19T00:09:38;43.53;;;25.60;;
6519;SDS011;3293;51.690;5.982;2023-02-19T00:14:38;48.20;;;26.37;;
6519;SDS011;3293;51.690;5.982;2023-02-19T00:19:38;44.00;;;24.87;;
6519;SDS011;3293;51.690;5.982;2023-02-19T00:24:38;52.17;;;25.90;;
6519;SDS011;3293;51.690;5.982;2023-02-19T00:29:38;59.83;;;25.27;;
6519;SDS011;3293;51.690;5.982;2023-02-19T00:34:39;35.87;;;19.47;;
6519;SDS011;3293;51.690;5.982;2023-02-19T00:39:39;37.07;;;19.67;;
6519;SDS011;3293;51.690;5.982;2023-02-19T00:44:39;31.27;;;17.17;;
6519;SDS011;3293;51.690;5.982;2023-02-19T00:49:38;31.23;;;16.73;;
6519;SDS011;3293;51.690;5.982;2023-02-19T00:54:39;23.27;;;15.93;;
6519;SDS011;3293;51.690;5.982;2023-02-19T00:59:39;32.93;;;17.27;;
6519;SDS011;3293;51.690;5.982;2023-02-19T01:04:39;39.17;;;17.63;;
6519;SDS011;3293;51.690;5.982;2023-02-19T01:09:39;31.17;;;16.63;;
6519;SDS011;3293;51.690;5.982;2023-02-19T01:14:39;32.33;;;17.43;;
6519;SDS011;3293;51.690;5.982;2023-02-19T01:19:39;36.37;;;18.67;;
6519;SDS011;3293;51.690;5.982;2023-02-19T01:24:39;44.17;;;18.33;;
6519;SDS011;3293;51.690;5.982;2023-02-19T01:29:39;40.20;;;17.03;;
6519;SDS011;3293;51.690;5.982;2023-02-19T01:34:40;37.40;;;18.00;;
6519;SDS011;3293;51.690;5.982;2023-02-19T01:39:40;30.33;;;15.77;;
6519;SDS011;3293;51.690;5.982;2023-02-19T01:49:44;32.73;;;16.70;;
6519;SDS011;3293;51.690;5.982;2023-02-19T01:54:48;33.07;;;16.33;;
6519;SDS011;3293;51.690;5.982;2023-02-19T01:59:49;28.77;;;14.70;;
6519;SDS011;3293;51.690;5.982;2023-02-19T02:04:54;31.17;;;15.03;;
6519;SDS011;3293;51.690;5.982;2023-02-19T02:09:55;27.67;;;12.90;;
6519;SDS011;3293;51.690;5.982;2023-02-19T02:15:14;29.57;;;12.17;;
6519;SDS011;3293;51.690;5.982;2023-02-19T02:31:16;29.90;;;13.17;;
6519;SDS011;3293;51.690;5.982;2023-02-19T02:36:35;22.67;;;12.50;;
6519;SDS011;3293;51.690;5.982;2023-02-19T02:41:42;31.47;;;12.83;;
6519;SDS011;3293;51.690;5.982;2023-02-19T02:46:44;26.00;;;11.97;;
6519;SDS011;3293;51.690;5.982;2023-02-19T02:51:49;32.50;;;12.67;;
6519;SDS011;3293;51.690;5.982;2023-02-19T02:56:51;34.60;;;13.10;;
6519;SDS011;3293;51.690;5.982;2023-02-19T03:01:57;32.90;;;12.90;;
6519;SDS011;3293;51.690;5.982;2023-02-19T03:07:10;31.23;;;12.67;;
6519;SDS011;3293;51.690;5.982;2023-02-19T03:12:12;29.97;;;12.93;;
6519;SDS011;3293;51.690;5.982;2023-02-19T03:17:34;27.33;;;12.57;;
6519;SDS011;3293;51.690;5.982;2023-02-19T03:23:08;27.83;;;10.73;;
6519;SDS011;3293;51.690;5.982;2023-02-19T03:28:09;32.10;;;11.43;;
6519;SDS011;3293;51.690;5.982;2023-02-19T03:43:31;27.13;;;10.37;;
6519;SDS011;3293;51.690;5.982;2023-02-19T03:59:53;25.33;;;10.00;;
6519;SDS011;3293;51.690;5.982;2023-02-19T04:04:42;22.47;;;9.07;;
6519;SDS011;3293;51.690;5.982;2023-02-19T04:09:46;22.27;;;8.67;;
6519;SDS011;3293;51.690;5.982;2023-02-19T04:14:52;18.73;;;8.53;;
6519;SDS011;3293;51.690;5.982;2023-02-19T04:19:59;25.10;;;7.70;;
6519;SDS011;3293;51.690;5.982;2023-02-19T04:25:03;20.00;;;8.47;;
6519;SDS011;3293;51.690;5.982;2023-02-19T04:30:04;19.10;;;7.70;;
6519;SDS011;3293;51.690;5.982;2023-02-19T04:35:05;23.20;;;8.83;;
6519;SDS011;3293;51.690;5.982;2023-02-19T04:40:05;23.87;;;8.90;;
6519;SDS011;3293;51.690;5.982;2023-02-19T04:45:06;26.97;;;9.00;;
6519;SDS011;3293;51.690;5.982;2023-02-19T04:50:06;18.83;;;8.70;;
6519;SDS011;3293;51.690;5.982;2023-02-19T04:55:06;22.37;;;8.00;;
6519;SDS011;3293;51.690;5.982;2023-02-19T05:00:07;24.17;;;9.03;;
6519;SDS011;3293;51.690;5.982;2023-02-19T05:05:08;18.43;;;7.93;;
6519;SDS011;3293;51.690;5.982;2023-02-19T05:10:08;31.23;;;9.60;;
6519;SDS011;3293;51.690;5.982;2023-02-19T05:15:08;21.30;;;9.93;;
6519;SDS011;3293;51.690;5.982;2023-02-19T05:20:08;26.53;;;10.50;;
6519;SDS011;3293;51.690;5.982;2023-02-19T05:25:08;27.70;;;10.83;;
6519;SDS011;3293;51.690;5.982;2023-02-19T05:30:08;27.93;;;10.57;;
6519;SDS011;3293;51.690;5.982;2023-02-19T05:35:09;19.77;;;10.43;;
6519;SDS011;3293;51.690;5.982;2023-02-19T05:40:09;23.97;;;8.50;;
6519;SDS011;3293;51.690;5.982;2023-02-19T05:45:09;20.73;;;9.33;;
6519;SDS011;3293;51.690;5.982;2023-02-19T05:50:09;21.97;;;9.23;;
6519;SDS011;3293;51.690;5.982;2023-02-19T05:55:10;25.20;;;9.90;;
6519;SDS011;3293;51.690;5.982;2023-02-19T06:00:16;24.10;;;9.23;;
6519;SDS011;3293;51.690;5.982;2023-02-19T06:05:17;17.23;;;9.17;;
6519;SDS011;3293;51.690;5.982;2023-02-19T06:10:17;31.50;;;9.80;;
6519;SDS011;3293;51.690;5.982;2023-02-19T06:15:17;21.87;;;9.07;;
6519;SDS011;3293;51.690;5.982;2023-02-19T06:20:17;24.23;;;9.57;;
6519;SDS011;3293;51.690;5.982;2023-02-19T06:25:18;32.63;;;9.50;;
6519;SDS011;3293;51.690;5.982;2023-02-19T06:30:18;23.93;;;9.23;;
6519;SDS011;3293;51.690;5.982;2023-02-19T06:35:19;23.80;;;8.90;;
6519;SDS011;3293;51.690;5.982;2023-02-19T06:40:19;27.60;;;10.03;;
6519;SDS011;3293;51.690;5.982;2023-02-19T06:45:19;24.43;;;10.83;;
6519;SDS011;3293;51.690;5.982;2023-02-19T06:50:19;22.50;;;10.50;;
6519;SDS011;3293;51.690;5.982;2023-02-19T06:55:19;25.40;;;10.20;;
6519;SDS011;3293;51.690;5.982;2023-02-19T07:00:19;25.77;;;10.23;;
6519;SDS011;3293;51.690;5.982;2023-02-19T07:05:19;20.73;;;9.30;;
6519;SDS011;3293;51.690;5.982;2023-02-19T07:10:19;28.53;;;11.27;;
6519;SDS011;3293;51.690;5.982;2023-02-19T07:15:19;18.30;;;10.07;;
6519;SDS011;3293;51.690;5.982;2023-02-19T07:20:19;27.87;;;10.57;;
6519;SDS011;3293;51.690;5.982;2023-02-19T07:25:19;27.67;;;10.77;;
6519;SDS011;3293;51.690;5.982;2023-02-19T07:30:20;24.47;;;10.87;;
6519;SDS011;3293;51.690;5.982;2023-02-19T07:35:19;19.40;;;9.30;;
6519;SDS011;3293;51.690;5.982;2023-02-19T07:40:19;19.30;;;9.50;;
6519;SDS011;3293;51.690;5.982;2023-02-19T07:45:20;21.80;;;9.67;;
6519;SDS011;3293;51.690;5.982;2023-02-19T07:50:20;23.07;;;9.67;;
6519;SDS011;3293;51.690;5.982;2023-02-19T07:55:20;24.03;;;10.37;;
6519;SDS011;3293;51.690;5.982;2023-02-19T08:00:19;17.37;;;9.93;;
6519;SDS011;3293;51.690;5.982;2023-02-19T08:05:20;17.33;;;9.43;;
6519;SDS011;3293;51.690;5.982;2023-02-19T08:10:20;19.97;;;7.97;;
6519;SDS011;3293;51.690;5.982;2023-02-19T08:15:38;13.20;;;7.40;;
6519;SDS011;3293;51.690;5.982;2023-02-19T08:20:38;13.33;;;8.37;;
6519;SDS011;3293;51.690;5.982;2023-02-19T08:25:39;15.77;;;7.27;;
6519;SDS011;3293;51.690;5.982;2023-02-19T08:30:40;16.67;;;7.80;;
6519;SDS011;3293;51.690;5.982;2023-02-19T08:35:43;16.47;;;8.60;;
6519;SDS011;3293;51.690;5.982;2023-02-19T08:40:43;19.43;;;8.60;;
6519;SDS011;3293;51.690;5.982;2023-02-19T08:45:44;15.13;;;8.60;;
6519;SDS011;3293;51.690;5.982;2023-02-19T08:50:51;17.57;;;9.27;;
6519;SDS011;3293;51.690;5.982;2023-02-19T08:55:53;13.37;;;8.20;;
6519;SDS011;3293;51.690;5.982;2023-02-19T09:00:53;11.10;;;7.70;;
6519;SDS011;3293;51.690;5.982;2023-02-19T09:05:53;14.67;;;7.33;;
6519;SDS011;3293;51.690;5.982;2023-02-19T09:10:58;9.20;;;6.40;;
6519;SDS011;3293;51.690;5.982;2023-02-19T09:16:01;12.87;;;6.90;;
6519;SDS011;3293;51.690;5.982;2023-02-19T09:21:02;13.07;;;6.93;;
6519;SDS011;3293;51.690;5.982;2023-02-19T09:26:03;13.97;;;7.20;;
6519;SDS011;3293;51.690;5.982;2023-02-19T09:31:07;10.13;;;6.90;;
6519;SDS011;3293;51.690;5.982;2023-02-19T09:36:09;7.80;;;5.63;;
6519;SDS011;3293;51.690;5.982;2023-02-19T09:46:32;10.90;;;5.67;;
6519;SDS011;3293;51.690;5.982;2023-02-19T09:52:01;10.73;;;6.10;;
6519;SDS011;3293;51.690;5.982;2023-02-19T09:57:10;8.17;;;6.77;;
6519;SDS011;3293;51.690;5.982;2023-02-19T10:07:18;12.93;;;6.53;;
6519;SDS011;3293;51.690;5.982;2023-02-19T10:12:27;8.70;;;6.63;;
6519;SDS011;3293;51.690;5.982;2023-02-19T10:17:29;10.30;;;6.43;;
6519;SDS011;3293;51.690;5.982;2023-02-19T10:22:32;9.87;;;6.20;;
6519;SDS011;3293;51.690;5.982;2023-02-19T10:27:36;9.63;;;5.73;;
6519;SDS011;3293;51.690;5.982;2023-02-19T10:32:36;10.47;;;6.07;;
6519;SDS011;3293;51.690;5.982;2023-02-19T10:37:44;8.37;;;5.23;;
6519;SDS011;3293;51.690;5.982;2023-02-19T10:42:46;7.43;;;5.30;;
6519;SDS011;3293;51.690;5.982;2023-02-19T10:47:48;6.83;;;5.23;;
6519;SDS011;3293;51.690;5.982;2023-02-19T10:52:52;6.93;;;5.37;;
6519;SDS011;3293;51.690;5.982;2023-02-19T10:57:54;7.67;;;5.40;;
6519;SDS011;3293;51.690;5.982;2023-02-19T11:03:12;7.23;;;6.07;;
6519;SDS011;3293;51.690;5.982;2023-02-19T11:08:20;10.77;;;6.80;;
6519;SDS011;3293;51.690;5.982;2023-02-19T11:13:25;9.97;;;6.63;;
6519;SDS011;3293;51.690;5.982;2023-02-19T11:18:29;8.97;;;6.07;;
6519;SDS011;3293;51.690;5.982;2023-02-19T11:23:32;9.37;;;6.10;;
6519;SDS011;3293;51.690;5.982;2023-02-19T11:28:41;10.63;;;7.27;;
6519;SDS011;3293;51.690;5.982;2023-02-19T11:33:43;9.70;;;5.80;;
6519;SDS011;3293;51.690;5.982;2023-02-19T11:38:51;10.03;;;5.87;;
6519;SDS011;3293;51.690;5.982;2023-02-19T11:44:08;7.20;;;5.50;;
6519;SDS011;3293;51.690;5.982;2023-02-19T11:49:52;5.83;;;4.60;;
6519;SDS011;3293;51.690;5.982;2023-02-19T11:55:14;13.13;;;5.23;;
6519;SDS011;3293;51.690;5.982;2023-02-19T12:00:26;28.80;;;11.43;;
6519;SDS011;3293;51.690;5.982;2023-02-19T12:16:05;17.30;;;7.50;;
6519;SDS011;3293;51.690;5.982;2023-02-19T12:37:20;14.87;;;6.10;;
6519;SDS011;3293;51.690;5.982;2023-02-19T12:47:44;9.10;;;5.40;;
6519;SDS011;3293;51.690;5.982;2023-02-19T12:52:58;7.93;;;5.30;;
6519;SDS011;3293;51.690;5.982;2023-02-19T12:58:04;9.67;;;4.67;;
6519;SDS011;3293;51.690;5.982;2023-02-19T13:13:23;9.10;;;5.07;;
6519;SDS011;3293;51.690;5.982;2023-02-19T13:23:49;7.37;;;5.83;;
6519;SDS011;3293;51.690;5.982;2023-02-19T13:39:23;6.20;;;5.60;;
6519;SDS011;3293;51.690;5.982;2023-02-19T13:44:24;7.50;;;6.70;;
6519;SDS011;3293;51.690;5.982;2023-02-19T13:54:35;8.30;;;6.20;;
6519;SDS011;3293;51.690;5.982;2023-02-19T13:59:38;7.33;;;5.70;;
6519;SDS011;3293;51.690;5.982;2023-02-19T14:09:48;11.93;;;5.70;;
6519;SDS011;3293;51.690;5.982;2023-02-19T14:14:54;8.50;;;5.93;;
6519;SDS011;3293;51.690;5.982;2023-02-19T14:19:59;8.63;;;7.37;;
6519;SDS011;3293;51.690;5.982;2023-02-19T14:24:59;13.00;;;8.23;;
6519;SDS011;3293;51.690;5.982;2023-02-19T14:30:00;12.00;;;7.10;;
6519;SDS011;3293;51.690;5.982;2023-02-19T14:35:01;10.13;;;7.03;;
6519;SDS011;3293;51.690;5.982;2023-02-19T14:40:02;8.27;;;5.70;;
6519;SDS011;3293;51.690;5.982;2023-02-19T14:45:04;5.17;;;3.80;;
6519;SDS011;3293;51.690;5.982;2023-02-19T14:50:06;5.27;;;3.63;;
6519;SDS011;3293;51.690;5.982;2023-02-19T14:55:22;7.07;;;4.07;;
6519;SDS011;3293;51.690;5.982;2023-02-19T15:00:38;9.37;;;5.87;;
6519;SDS011;3293;51.690;5.982;2023-02-19T15:05:40;10.90;;;7.17;;
6519;SDS011;3293;51.690;5.982;2023-02-19T15:10:43;10.73;;;7.87;;
6519;SDS011;3293;51.690;5.982;2023-02-19T15:15:43;9.17;;;7.53;;
6519;SDS011;3293;51.690;5.982;2023-02-19T15:20:44;9.77;;;7.17;;
6519;SDS011;3293;51.690;5.982;2023-02-19T15:25:45;8.77;;;6.67;;
6519;SDS011;3293;51.690;5.982;2023-02-19T15:30:46;8.63;;;5.57;;
6519;SDS011;3293;51.690;5.982;2023-02-19T15:35:50;7.03;;;4.83;;
6519;SDS011;3293;51.690;5.982;2023-02-19T15:40:59;5.20;;;4.20;;
6519;SDS011;3293;51.690;5.982;2023-02-19T15:46:00;5.30;;;4.17;;
6519;SDS011;3293;51.690;5.982;2023-02-19T15:51:07;5.13;;;4.00;;
6519;SDS011;3293;51.690;5.982;2023-02-19T15:56:21;6.07;;;4.20;;
6519;SDS011;3293;51.690;5.982;2023-02-19T16:01:28;5.53;;;4.53;;
6519;SDS011;3293;51.690;5.982;2023-02-19T16:06:31;9.40;;;5.27;;
6519;SDS011;3293;51.690;5.982;2023-02-19T16:12:00;7.20;;;5.23;;
6519;SDS011;3293;51.690;5.982;2023-02-19T16:22:08;9.70;;;7.10;;
6519;SDS011;3293;51.690;5.982;2023-02-19T16:27:11;5.63;;;5.03;;
6519;SDS011;3293;51.690;5.982;2023-02-19T16:32:14;4.77;;;4.30;;
6519;SDS011;3293;51.690;5.982;2023-02-19T16:37:31;5.87;;;5.27;;
6519;SDS011;3293;51.690;5.982;2023-02-19T16:42:31;7.67;;;5.30;;
6519;SDS011;3293;51.690;5.982;2023-02-19T16:47:32;6.17;;;4.63;;
6519;SDS011;3293;51.690;5.982;2023-02-19T16:52:34;6.03;;;4.83;;
6519;SDS011;3293;51.690;5.982;2023-02-19T16:57:37;5.20;;;4.80;;
6519;SDS011;3293;51.690;5.982;2023-02-19T17:02:37;6.53;;;5.20;;
6519;SDS011;3293;51.690;5.982;2023-02-19T17:07:37;4.93;;;4.20;;
6519;SDS011;3293;51.690;5.982;2023-02-19T17:12:37;6.07;;;4.53;;
6519;SDS011;3293;51.690;5.982;2023-02-19T17:17:37;4.87;;;4.30;;
6519;SDS011;3293;51.690;5.982;2023-02-19T17:22:37;6.30;;;4.60;;
6519;SDS011;3293;51.690;5.982;2023-02-19T17:27:37;6.83;;;4.30;;
6519;SDS011;3293;51.690;5.982;2023-02-19T17:32:37;6.17;;;4.73;;
6519;SDS011;3293;51.690;5.982;2023-02-19T17:37:37;5.90;;;4.27;;
6519;SDS011;3293;51.690;5.982;2023-02-19T17:42:37;7.13;;;4.63;;
6519;SDS011;3293;51.690;5.982;2023-02-19T17:47:37;7.37;;;5.50;;
6519;SDS011;3293;51.690;5.982;2023-02-19T17:52:37;6.03;;;5.30;;
6519;SDS011;3293;51.690;5.982;2023-02-19T17:57:37;7.50;;;6.03;;
6519;SDS011;3293;51.690;5.982;2023-02-19T18:02:37;7.30;;;5.80;;
6519;SDS011;3293;51.690;5.982;2023-02-19T18:07:37;9.17;;;7.03;;
6519;SDS011;3293;51.690;5.982;2023-02-19T18:12:37;7.87;;;6.60;;
6519;SDS011;3293;51.690;5.982;2023-02-19T18:17:38;8.03;;;7.00;;
6519;SDS011;3293;51.690;5.982;2023-02-19T18:22:39;12.37;;;8.97;;
6519;SDS011;3293;51.690;5.982;2023-02-19T18:27:40;11.23;;;9.07;;
6519;SDS011;3293;51.690;5.982;2023-02-19T18:32:40;8.93;;;8.00;;
6519;SDS011;3293;51.690;5.982;2023-02-19T18:37:40;9.43;;;8.37;;
6519;SDS011;3293;51.690;5.982;2023-02-19T18:42:40;14.90;;;9.47;;
6519;SDS011;3293;51.690;5.982;2023-02-19T18:47:40;14.03;;;9.70;;
6519;SDS011;3293;51.690;5.982;2023-02-19T18:52:40;11.50;;;7.87;;
6519;SDS011;3293;51.690;5.982;2023-02-19T18:57:40;8.57;;;7.27;;
6519;SDS011;3293;51.690;5.982;2023-02-19T19:02:40;9.80;;;7.00;;
6519;SDS011;3293;51.690;5.982;2023-02-19T19:07:40;7.97;;;6.63;;
6519;SDS011;3293;51.690;5.982;2023-02-19T19:12:40;6.70;;;5.63;;
6519;SDS011;3293;51.690;5.982;2023-02-19T19:17:40;6.80;;;5.90;;
6519;SDS011;3293;51.690;5.982;2023-02-19T19:22:40;6.90;;;5.80;;
6519;SDS011;3293;51.690;5.982;2023-02-19T19:27:41;6.77;;;5.50;;
6519;SDS011;3293;51.690;5.982;2023-02-19T19:32:41;8.10;;;5.93;;
6519;SDS011;3293;51.690;5.982;2023-02-19T19:37:41;7.63;;;6.83;;
6519;SDS011;3293;51.690;5.982;2023-02-19T19:42:41;7.23;;;6.53;;
6519;SDS011;3293;51.690;5.982;2023-02-19T19:47:41;12.57;;;8.93;;
6519;SDS011;3293;51.690;5.982;2023-02-19T19:52:41;6.43;;;5.77;;
6519;SDS011;3293;51.690;5.982;2023-02-19T19:57:41;6.63;;;6.03;;
6519;SDS011;3293;51.690;5.982;2023-02-19T20:02:41;6.90;;;6.20;;
6519;SDS011;3293;51.690;5.982;2023-02-19T20:07:41;9.97;;;8.27;;
6519;SDS011;3293;51.690;5.982;2023-02-19T20:12:41;12.63;;;10.23;;
6519;SDS011;3293;51.690;5.982;2023-02-19T20:17:41;11.23;;;8.40;;
6519;SDS011;3293;51.690;5.982;2023-02-19T20:22:42;9.63;;;8.47;;
6519;SDS011;3293;51.690;5.982;2023-02-19T20:27:42;14.50;;;8.63;;
6519;SDS011;3293;51.690;5.982;2023-02-19T20:32:42;7.53;;;6.77;;
6519;SDS011;3293;51.690;5.982;2023-02-19T20:37:42;8.37;;;7.23;;
6519;SDS011;3293;51.690;5.982;2023-02-19T20:42:42;8.87;;;7.30;;
6519;SDS011;3293;51.690;5.982;2023-02-19T20:47:42;9.73;;;7.17;;
6519;SDS011;3293;51.690;5.982;2023-02-19T20:52:42;8.10;;;7.30;;
6519;SDS011;3293;51.690;5.982;2023-02-19T20:57:43;10.80;;;8.73;;
6519;SDS011;3293;51.690;5.982;2023-02-19T21:02:43;11.57;;;7.57;;
6519;SDS011;3293;51.690;5.982;2023-02-19T21:07:43;12.47;;;8.23;;
6519;SDS011;3293;51.690;5.982;2023-02-19T21:12:43;10.03;;;8.03;;
6519;SDS011;3293;51.690;5.982;2023-02-19T21:17:43;9.50;;;7.33;;
6519;SDS011;3293;51.690;5.982;2023-02-19T21:22:45;9.37;;;7.63;;
6519;SDS011;3293;51.690;5.982;2023-02-19T21:27:46;12.80;;;7.77;;
6519;SDS011;3293;51.690;5.982;2023-02-19T21:32:46;12.20;;;8.73;;
6519;SDS011;3293;51.690;5.982;2023-02-19T21:37:47;10.80;;;7.50;;
6519;SDS011;3293;51.690;5.982;2023-02-19T21:42:47;8.47;;;6.43;;
6519;SDS011;3293;51.690;5.982;2023-02-19T21:47:47;7.63;;;6.33;;
6519;SDS011;3293;51.690;5.982;2023-02-19T21:52:50;6.93;;;5.80;;
6519;SDS011;3293;51.690;5.982;2023-02-19T21:57:51;7.47;;;5.77;;
6519;SDS011;3293;51.690;5.982;2023-02-19T22:02:52;7.23;;;5.43;;
6519;SDS011;3293;51.690;5.982;2023-02-19T22:07:52;9.53;;;5.50;;
6519;SDS011;3293;51.690;5.982;2023-02-19T22:12:52;8.03;;;6.00;;
6519;SDS011;3293;51.690;5.982;2023-02-19T22:17:52;6.60;;;5.70;;
6519;SDS011;3293;51.690;5.982;2023-02-19T22:22:52;7.20;;;5.50;;
6519;SDS011;3293;51.690;5.982;2023-02-19T22:27:52;9.17;;;6.53;;
6519;SDS011;3293;51.690;5.982;2023-02-19T22:32:52;8.53;;;6.40;;
6519;SDS011;3293;51.690;5.982;2023-02-19T22:37:52;10.30;;;7.03;;
6519;SDS011;3293;51.690;5.982;2023-02-19T22:42:52;14.40;;;7.97;;
6519;SDS011;3293;51.690;5.982;2023-02-19T22:47:54;12.67;;;8.07;;
6519;SDS011;3293;51.690;5.982;2023-02-19T22:52:55;15.83;;;8.17;;
6519;SDS011;3293;51.690;5.982;2023-02-19T22:57:55;13.27;;;8.93;;
6519;SDS011;3293;51.690;5.982;2023-02-19T23:02:55;14.90;;;10.67;;
6519;SDS011;3293;51.690;5.982;2023-02-19T23:07:55;19.13;;;11.37;;
6519;SDS011;3293;51.690;5.982;2023-02-19T23:12:55;20.60;;;11.20;;
6519;SDS011;3293;51.690;5.982;2023-02-19T23:17:54;18.13;;;12.13;;
6519;SDS011;3293;51.690;5.982;2023-02-19T23:22:54;22.60;;;13.10;;
6519;SDS011;3293;51.690;5.982;2023-02-19T23:27:55;24.10;;;13.03;;
6519;SDS011;3293;51.690;5.982;2023-02-19T23:32:55;21.37;;;13.57;;
6519;SDS011;3293;51.690;5.982;2023-02-19T23:37:55;27.77;;;15.97;;
6519;SDS011;3293;51.690;5.982;2023-02-19T23:42:55;26.20;;;15.27;;
6519;SDS011;3293;51.690;5.982;2023-02-19T23:47:55;30.03;;;16.47;;
6519;SDS011;3293;51.690;5.982;2023-02-19T23:52:55;27.13;;;15.83;;
6519;SDS011;3293;51.690;5.982;2023-02-19T23:57:57;29.57;;;16.47;;
